Time;durP1;ratioP1;P1;durP2;ratioP2;P2;SDS_P1;SDS_P2;PMS_P1;PMS_P2;Temp;Humidity;BMP_temperature;BMP_pressure;BME280_temperature;BME280_humidity;BME280_pressure;Samples;Min_cycle;Max_cycle;Signal;HPM_P1;HPM_P2
2023/10/31 00:00:09;;;;;;;19.10;12.80;;;12.00;94.10;;;;;;752085;186;26503;-86
2023/10/31 00:05:20;;;;;;;9.90;7.37;;;11.90;94.10;;;;;;779691;183;26479;-86
2023/10/31 00:08:24;;;;;;;16.10;11.47;;;12.00;93.80;;;;;;777533;183;26520;-85
2023/10/31 00:10:52;;;;;;;12.67;8.20;;;12.00;93.80;;;;;;777576;179;26470;-86
2023/10/31 00:13:24;;;;;;;12.93;9.93;;;12.10;93.20;;;;;;773071;181;26496;-87
2023/10/31 00:15:53;;;;;;;9.40;7.73;;;12.00;93.20;;;;;;762627;187;27045;-88
2023/10/31 00:18:31;;;;;;;6.33;5.70;;;12.00;93.10;;;;;;773161;185;26510;-86
2023/10/31 00:21:14;;;;;;;;;;;;;;;;;;;;;
2023/10/31 00:23:55;;;;;;;43.30;25.53;;;12.00;93.70;;;;;;760646;184;26461;-84
2023/10/31 00:26:30;;;;;;;22.97;15.30;;;11.90;94.00;;;;;;756327;187;26529;-83
2023/10/31 00:29:00;;;;;;;8.37;6.00;;;11.90;93.60;;;;;;777074;183;26989;-87
2023/10/31 00:31:30;;;;;;;5.50;5.00;;;12.00;93.10;;;;;;754372;185;26517;-85
2023/10/31 00:34:01;;;;;;;5.90;5.30;;;12.00;93.20;;;;;;770486;184;27020;-84
2023/10/31 00:36:33;;;;;;;16.03;11.77;;;12.00;93.50;;;;;;764638;187;28085;-82
2023/10/31 00:39:03;;;;;;;12.17;9.03;;;12.00;93.40;;;;;;758060;186;27090;-86
2023/10/31 00:41:34;;;;;;;12.20;8.50;;;11.90;92.90;;;;;;773996;185;26531;-84
2023/10/31 00:44:05;;;;;;;4.50;4.10;;;11.90;92.80;;;;;;772929;185;27001;-83
2023/10/31 00:46:40;;;;;;;5.73;4.57;;;11.90;92.80;;;;;;766318;184;26635;-83
2023/10/31 00:49:11;;;;;;;9.87;6.47;;;11.80;93.00;;;;;;764881;184;26488;-83
2023/10/31 00:51:53;;;;;;;4.37;3.33;;;11.80;93.10;;;;;;770627;184;27058;-84
2023/10/31 00:54:20;;;;;;;4.17;3.77;;;11.80;93.00;;;;;;774015;183;26472;-84
2023/10/31 00:56:51;;;;;;;4.50;3.60;;;11.80;92.40;;;;;;771906;183;26470;-84
2023/10/31 00:59:18;;;;;;;4.53;3.50;;;11.70;92.70;;;;;;775617;184;26461;-83
2023/10/31 01:01:46;;;;;;;3.80;3.40;;;11.70;92.50;;;;;;774035;183;26527;-83
2023/10/31 01:04:12;;;;;;;4.07;3.47;;;11.70;92.50;;;;;;759098;185;27001;-81
2023/10/31 01:06:44;;;;;;;5.40;4.20;;;11.70;92.60;;;;;;767975;185;26524;-87
2023/10/31 01:09:15;;;;;;;6.70;4.20;;;11.70;92.60;;;;;;761785;183;26484;-82
2023/10/31 01:11:43;;;;;;;7.57;5.20;;;11.60;92.50;;;;;;767111;185;26526;-83
2023/10/31 01:14:10;;;;;;;6.10;4.70;;;11.60;92.60;;;;;;760029;184;26559;-88
2023/10/31 01:16:57;;;;;;;5.73;3.87;;;11.60;92.40;;;;;;754715;187;26557;-83
2023/10/31 01:19:26;;;;;;;11.37;7.30;;;11.60;92.60;;;;;;772315;184;27008;-85
2023/10/31 01:21:57;;;;;;;5.97;4.00;;;11.40;92.70;;;;;;776865;184;27034;-83
2023/10/31 01:24:26;;;;;;;8.63;5.73;;;11.30;92.60;;;;;;763990;185;26495;-83
2023/10/31 01:26:56;;;;;;;6.90;5.07;;;11.20;92.90;;;;;;773454;184;26497;-88
2023/10/31 01:29:26;;;;;;;3.90;3.50;;;11.10;93.40;;;;;;768042;185;26492;-83
2023/10/31 01:31:55;;;;;;;10.00;5.03;;;11.10;93.20;;;;;;773412;181;27054;-83
2023/10/31 01:34:38;;;;;;;5.90;3.67;;;11.00;93.30;;;;;;772972;185;27051;-83
2023/10/31 01:37:15;;;;;;;6.43;3.60;;;11.00;93.60;;;;;;773406;185;27025;-82
2023/10/31 01:39:43;;;;;;;6.03;3.60;;;11.00;93.50;;;;;;773390;184;26463;-84
2023/10/31 01:42:10;;;;;;;8.53;5.30;;;11.00;93.40;;;;;;774093;183;26515;-87
2023/10/31 01:47:24;;;;;;;9.37;4.03;;;11.00;93.10;;;;;;774197;184;27003;-85
2023/10/31 01:49:51;;;;;;;8.40;5.10;;;10.90;93.70;;;;;;764420;185;26555;-83
2023/10/31 01:52:25;;;;;;;5.70;3.40;;;10.80;93.90;;;;;;756822;189;26485;-85
2023/10/31 01:55:01;;;;;;;6.00;4.00;;;10.80;94.10;;;;;;756972;185;26523;-83
2023/10/31 01:57:28;;;;;;;6.30;3.70;;;10.70;94.10;;;;;;757306;185;26489;-83
2023/10/31 01:59:56;;;;;;;5.90;3.70;;;10.60;94.10;;;;;;756837;185;26469;-82
2023/10/31 02:02:31;;;;;;;16.73;10.10;;;10.60;94.30;;;;;;746721;190;26471;-85
2023/10/31 02:05:01;;;;;;;9.70;4.73;;;10.60;94.70;;;;;;759263;187;26468;-83
2023/10/31 02:07:30;;;;;;;52.17;26.33;;;10.60;95.10;;;;;;766509;184;26468;-84
2023/10/31 02:10:06;;;;;;;17.77;10.33;;;10.60;94.60;;;;;;774899;183;27070;-83
2023/10/31 02:12:35;;;;;;;6.27;4.03;;;10.70;94.60;;;;;;775108;183;27020;-82
2023/10/31 02:15:06;;;;;;;7.80;4.70;;;10.70;94.30;;;;;;774367;181;27027;-83
2023/10/31 02:17:35;;;;;;;8.63;5.47;;;10.70;94.00;;;;;;774419;185;26985;-83
2023/10/31 02:20:05;;;;;;;6.93;2.90;;;10.70;93.90;;;;;;774436;183;26533;-82
2023/10/31 02:22:36;;;;;;;15.90;7.67;;;10.70;94.10;;;;;;763303;183;26474;-83
2023/10/31 02:25:05;;;;;;;10.17;4.43;;;10.60;94.30;;;;;;758390;185;26477;-82
2023/10/31 02:27:35;;;;;;;7.17;3.40;;;10.60;94.50;;;;;;758508;185;26472;-85
2023/10/31 02:30:16;;;;;;;11.20;6.93;;;10.50;94.50;;;;;;755698;187;26488;-83
2023/10/31 02:35:21;;;;;;;36.30;19.27;;;10.40;94.60;;;;;;773022;185;26438;-83
2023/10/31 02:37:51;;;;;;;28.37;16.77;;;10.40;94.80;;;;;;769875;184;26475;-83
2023/10/31 02:42:57;;;;;;;30.83;17.00;;;10.50;94.80;;;;;;774142;185;26486;-83
2023/10/31 02:45:25;;;;;;;15.80;9.07;;;10.30;94.80;;;;;;761697;184;27294;-87
2023/10/31 02:47:58;;;;;;;9.97;4.20;;;10.30;94.80;;;;;;762075;184;26489;-83
2023/10/31 02:50:27;;;;;;;6.23;3.93;;;10.30;95.00;;;;;;770378;185;28149;-86
2023/10/31 02:52:54;;;;;;;5.87;3.87;;;10.40;94.70;;;;;;770953;184;26506;-82
2023/10/31 02:55:26;;;;;;;35.77;18.47;;;10.40;94.80;;;;;;775126;184;27004;-83
2023/10/31 02:57:56;;;;;;;18.07;11.17;;;10.40;94.70;;;;;;757327;185;26468;-83
2023/10/31 03:00:26;;;;;;;11.60;6.73;;;10.30;94.50;;;;;;773388;185;26482;-83
2023/10/31 03:02:56;;;;;;;8.17;3.97;;;10.30;94.70;;;;;;775280;185;26486;-82
2023/10/31 03:05:23;;;;;;;4.53;3.57;;;10.30;94.80;;;;;;775323;184;27283;-85
2023/10/31 03:07:49;;;;;;;5.40;3.57;;;10.30;94.90;;;;;;760725;188;26505;-84
2023/10/31 03:10:18;;;;;;;9.77;4.63;;;10.30;94.70;;;;;;744641;193;26517;-82
2023/10/31 03:12:48;;;;;;;19.53;10.07;;;10.30;94.60;;;;;;747569;188;27043;-82
2023/10/31 03:15:16;;;;;;;31.80;14.50;;;10.20;94.60;;;;;;769980;182;26409;-82
2023/10/31 03:17:48;;;;;;;12.80;6.63;;;10.20;95.00;;;;;;777725;184;26448;-82
2023/10/31 03:20:14;;;;;;;16.40;9.53;;;10.20;94.90;;;;;;764564;187;26420;-82
2023/10/31 03:22:48;;;;;;;7.27;3.67;;;10.20;95.10;;;;;;777929;184;26469;-81
2023/10/31 03:25:16;;;;;;;5.90;3.50;;;10.20;95.20;;;;;;776635;184;26996;-82
2023/10/31 03:27:48;;;;;;;6.03;3.53;;;10.30;95.40;;;;;;778098;184;26398;-83
2023/10/31 03:30:14;;;;;;;11.63;7.50;;;10.30;95.30;;;;;;778172;182;26447;-84
2023/10/31 03:32:41;;;;;;;14.27;8.27;;;10.40;95.10;;;;;;771605;184;26969;-83
2023/10/31 03:35:08;;;;;;;6.70;3.50;;;10.50;95.20;;;;;;768529;184;26477;-82
2023/10/31 03:37:41;;;;;;;6.87;3.27;;;10.50;95.10;;;;;;768458;183;26451;-84
2023/10/31 03:40:10;;;;;;;3.37;2.30;;;10.50;94.90;;;;;;768030;186;27009;-84
2023/10/31 03:42:40;;;;;;;6.40;2.67;;;10.60;93.90;;;;;;774798;184;26992;-84
2023/10/31 03:45:13;;;;;;;5.43;2.73;;;10.60;93.70;;;;;;767163;184;27030;-82
2023/10/31 03:47:43;;;;;;;4.50;2.20;;;10.70;94.10;;;;;;764637;184;26550;-82
2023/10/31 03:50:15;;;;;;;5.87;2.37;;;10.70;93.80;;;;;;767723;185;26427;-84
2023/10/31 03:52:41;;;;;;;3.37;2.10;;;10.70;93.70;;;;;;765369;179;26589;-86
2023/10/31 03:55:08;;;;;;;6.33;2.23;;;10.70;93.70;;;;;;757274;187;26597;-88
2023/10/31 03:57:34;;;;;;;4.17;2.20;;;10.70;93.80;;;;;;751862;189;26517;-86
2023/10/31 04:00:04;;;;;;;4.27;2.57;;;10.70;93.80;;;;;;752128;191;27098;-86
2023/10/31 04:02:29;;;;;;;3.67;1.73;;;10.80;94.00;;;;;;750772;187;26559;-87
2023/10/31 04:04:56;;;;;;;2.70;2.07;;;10.80;93.50;;;;;;756885;187;26548;-87
2023/10/31 04:07:23;;;;;;;2.27;2.00;;;10.80;93.50;;;;;;752050;187;27057;-87
2023/10/31 04:09:49;;;;;;;4.10;1.93;;;10.80;93.40;;;;;;754549;187;26514;-87
2023/10/31 04:12:16;;;;;;;3.07;2.00;;;10.90;93.30;;;;;;760845;184;27116;-87
2023/10/31 04:14:42;;;;;;;2.57;1.70;;;10.90;93.10;;;;;;758145;185;27055;-86
2023/10/31 04:17:12;;;;;;;2.37;1.70;;;11.00;93.50;;;;;;764675;187;26870;-87
2023/10/31 04:19:38;;;;;;;4.33;1.80;;;11.00;93.50;;;;;;764283;184;26524;-86
2023/10/31 04:22:05;;;;;;;3.50;2.20;;;11.00;93.30;;;;;;753591;187;27111;-87
2023/10/31 04:24:32;;;;;;;5.77;1.93;;;11.00;93.20;;;;;;759666;187;26531;-86
2023/10/31 04:26:58;;;;;;;2.80;1.60;;;11.10;93.40;;;;;;753165;187;27082;-87
2023/10/31 04:29:37;;;;;;;2.17;2.00;;;11.10;93.20;;;;;;761563;186;26560;-87
2023/10/31 04:32:06;;;;;;;3.20;1.87;;;11.10;93.20;;;;;;755535;186;26537;-87
2023/10/31 04:34:57;;;;;;;3.37;2.00;;;11.10;92.70;;;;;;760852;186;26555;-87
2023/10/31 04:37:24;;;;;;;3.13;1.67;;;11.10;92.90;;;;;;759501;186;27036;-85
2023/10/31 04:40:03;;;;;;;4.50;1.90;;;11.10;93.00;;;;;;742848;190;26475;-87
2023/10/31 04:42:35;;;;;;;3.13;2.10;;;11.10;92.40;;;;;;757945;187;26548;-87
2023/10/31 04:45:10;;;;;;;2.47;1.80;;;11.10;93.00;;;;;;759180;187;27101;-87
2023/10/31 04:47:43;;;;;;;2.73;1.77;;;11.10;93.10;;;;;;760622;187;26516;-87
2023/10/31 04:50:25;;;;;;;4.17;2.00;;;11.10;92.80;;;;;;758014;185;26501;-87
2023/10/31 04:53:02;;;;;;;2.90;1.90;;;11.10;93.00;;;;;;762292;187;27073;-86
2023/10/31 04:55:28;;;;;;;2.00;1.80;;;11.10;93.40;;;;;;756645;187;27073;-87
2023/10/31 04:57:55;;;;;;;3.10;1.90;;;11.10;93.20;;;;;;763026;185;26521;-88
2023/10/31 05:00:21;;;;;;;3.00;2.07;;;11.20;92.80;;;;;;758370;180;27054;-86
2023/10/31 05:02:48;;;;;;;3.17;1.80;;;11.20;92.80;;;;;;760419;187;26538;-87
2023/10/31 05:05:15;;;;;;;2.20;1.70;;;11.30;92.50;;;;;;759859;188;27032;-87
2023/10/31 05:07:41;;;;;;;4.00;1.87;;;11.30;92.80;;;;;;755738;187;26495;-87
2023/10/31 05:10:08;;;;;;;2.17;1.80;;;11.30;92.50;;;;;;758173;186;27068;-87
2023/10/31 05:12:35;;;;;;;2.30;2.10;;;11.30;92.30;;;;;;752642;187;26542;-86
2023/10/31 05:15:02;;;;;;;5.63;2.07;;;11.40;92.10;;;;;;751184;188;27066;-87
2023/10/31 05:17:28;;;;;;;3.47;2.20;;;11.40;91.80;;;;;;748178;187;26496;-86
2023/10/31 05:19:56;;;;;;;3.70;2.20;;;11.50;91.90;;;;;;746261;187;27090;-87
2023/10/31 05:22:23;;;;;;;3.30;2.70;;;11.60;91.30;;;;;;752208;187;27130;-87
2023/10/31 05:24:49;;;;;;;4.50;2.43;;;11.50;91.60;;;;;;747405;188;26493;-87
2023/10/31 05:27:16;;;;;;;5.43;2.50;;;11.50;91.10;;;;;;753433;186;27067;-87
2023/10/31 05:29:42;;;;;;;2.47;1.90;;;11.50;90.80;;;;;;754737;187;26549;-87
2023/10/31 05:32:09;;;;;;;3.87;2.63;;;11.50;90.90;;;;;;756930;187;27084;-88
2023/10/31 05:34:35;;;;;;;3.43;2.20;;;11.50;91.10;;;;;;761805;187;26509;-87
2023/10/31 05:37:05;;;;;;;3.47;2.30;;;11.50;90.90;;;;;;759394;188;27062;-87
2023/10/31 05:39:33;;;;;;;2.63;2.30;;;11.50;90.70;;;;;;762031;185;26503;-87
2023/10/31 05:42:01;;;;;;;2.60;2.40;;;11.50;90.90;;;;;;758787;186;26533;-87
2023/10/31 05:44:28;;;;;;;3.77;2.53;;;11.50;90.50;;;;;;750686;189;26507;-87
2023/10/31 05:46:59;;;;;;;4.27;2.83;;;11.50;90.70;;;;;;759930;186;26505;-87
2023/10/31 05:49:28;;;;;;;5.27;2.70;;;11.50;90.70;;;;;;749779;189;26508;-87
2023/10/31 05:51:55;;;;;;;3.23;2.70;;;11.50;90.50;;;;;;757479;185;26511;-87
2023/10/31 05:54:22;;;;;;;4.40;2.90;;;11.50;90.50;;;;;;760820;186;27116;-89
2023/10/31 05:56:48;;;;;;;4.60;2.50;;;11.50;90.90;;;;;;746643;187;26496;-86
2023/10/31 05:59:15;;;;;;;3.80;2.47;;;11.50;90.70;;;;;;756631;187;27105;-87
2023/10/31 06:01:41;;;;;;;2.83;2.27;;;11.50;90.60;;;;;;753753;187;26519;-88
2023/10/31 06:04:08;;;;;;;4.30;3.43;;;11.50;90.70;;;;;;756368;187;27093;-87
2023/10/31 06:06:34;;;;;;;2.90;2.47;;;11.60;90.80;;;;;;759996;183;26516;-87
2023/10/31 06:09:01;;;;;;;4.97;2.70;;;11.60;91.20;;;;;;752684;184;27050;-87
2023/10/31 06:11:28;;;;;;;3.80;2.30;;;11.60;90.70;;;;;;753435;187;26553;-87
2023/10/31 06:13:54;;;;;;;3.57;2.60;;;11.60;90.50;;;;;;756868;187;27085;-88
2023/10/31 06:16:21;;;;;;;2.60;2.40;;;11.60;91.10;;;;;;762607;186;26522;-87
2023/10/31 06:18:47;;;;;;;2.77;2.40;;;11.60;90.80;;;;;;753289;187;26507;-87
2023/10/31 06:21:14;;;;;;;4.17;2.70;;;11.60;90.60;;;;;;761119;187;26519;-86
2023/10/31 06:23:42;;;;;;;2.97;2.60;;;11.60;90.50;;;;;;755384;187;26572;-88
2023/10/31 06:26:08;;;;;;;2.90;2.60;;;11.60;90.20;;;;;;755182;187;26503;-87
2023/10/31 06:28:35;;;;;;;3.37;2.60;;;11.60;90.30;;;;;;758986;187;26511;-86
2023/10/31 06:31:01;;;;;;;4.00;2.70;;;11.60;90.70;;;;;;754288;187;26525;-87
2023/10/31 06:33:27;;;;;;;3.47;2.60;;;11.60;90.70;;;;;;756534;187;26644;-86
2023/10/31 06:35:54;;;;;;;3.83;2.87;;;11.60;90.40;;;;;;756269;185;26525;-87
2023/10/31 06:38:20;;;;;;;4.33;3.03;;;11.60;90.70;;;;;;752286;187;26555;-87
2023/10/31 06:40:52;;;;;;;3.53;3.23;;;11.60;90.60;;;;;;752587;187;26503;-87
2023/10/31 06:43:24;;;;;;;6.17;3.57;;;11.60;91.00;;;;;;761455;187;26512;-89
2023/10/31 06:45:50;;;;;;;3.43;3.13;;;11.50;90.70;;;;;;758192;187;27148;-88
2023/10/31 06:48:26;;;;;;;3.80;3.27;;;11.50;90.60;;;;;;759577;187;26518;-86
2023/10/31 06:50:53;;;;;;;3.93;3.37;;;11.50;90.80;;;;;;749147;190;26484;-87
2023/10/31 06:53:19;;;;;;;4.13;3.73;;;11.40;90.70;;;;;;748314;192;27050;-86
2023/10/31 06:55:46;;;;;;;6.20;3.77;;;11.50;90.90;;;;;;748029;192;26534;-89
2023/10/31 06:58:13;;;;;;;6.97;3.83;;;11.40;91.00;;;;;;748215;190;27056;-86
2023/10/31 07:00:39;;;;;;;5.57;3.97;;;11.50;90.70;;;;;;747489;187;26554;-88
2023/10/31 07:03:09;;;;;;;3.87;3.47;;;11.50;90.90;;;;;;747533;191;26559;-87
2023/10/31 07:05:32;;;;;;;4.73;3.63;;;11.50;90.80;;;;;;747255;187;26560;-87
2023/10/31 07:07:59;;;;;;;4.53;3.90;;;11.50;90.80;;;;;;747311;190;27092;-86
2023/10/31 07:10:25;;;;;;;5.10;4.27;;;11.60;90.90;;;;;;747824;185;26569;-87
2023/10/31 07:12:52;;;;;;;5.53;3.97;;;11.60;91.10;;;;;;747002;190;26598;-87
2023/10/31 07:15:19;;;;;;;4.93;4.43;;;11.60;90.80;;;;;;747531;190;26590;-87
2023/10/31 07:18:07;;;;;;;4.60;4.13;;;11.70;90.70;;;;;;746992;190;26578;-87
2023/10/31 07:20:32;;;;;;;5.27;4.27;;;11.70;90.90;;;;;;748968;185;26504;-90
2023/10/31 07:22:59;;;;;;;4.80;4.20;;;11.70;90.50;;;;;;750090;185;26497;-92
2023/10/31 07:25:25;;;;;;;7.17;3.97;;;11.70;90.60;;;;;;749908;185;26516;-90
2023/10/31 07:27:52;;;;;;;5.30;4.10;;;11.60;90.40;;;;;;748747;191;26663;-88
2023/10/31 07:30:19;;;;;;;6.30;4.40;;;11.70;90.50;;;;;;748041;190;26543;-88
2023/10/31 07:32:45;;;;;;;7.93;4.20;;;11.60;90.20;;;;;;747844;189;26565;-88
2023/10/31 07:35:12;;;;;;;5.53;4.50;;;11.70;90.30;;;;;;747716;191;27114;-89
2023/10/31 07:37:38;;;;;;;7.33;4.60;;;11.70;90.40;;;;;;747629;190;26631;-88
2023/10/31 07:40:06;;;;;;;9.67;4.87;;;11.70;90.40;;;;;;747785;188;27105;-88
2023/10/31 07:42:32;;;;;;;6.63;4.27;;;11.70;90.60;;;;;;747663;190;26534;-88
2023/10/31 07:44:59;;;;;;;8.53;4.87;;;11.70;90.40;;;;;;747660;191;27036;-88
2023/10/31 07:47:25;;;;;;;5.20;4.70;;;11.70;90.80;;;;;;747780;191;26504;-88
2023/10/31 07:49:53;;;;;;;5.60;4.53;;;11.70;90.30;;;;;;747657;188;26488;-88
2023/10/31 07:52:19;;;;;;;4.93;4.27;;;11.70;90.40;;;;;;747582;190;26549;-88
2023/10/31 07:54:45;;;;;;;6.43;4.83;;;11.80;90.60;;;;;;749062;187;26513;-88
2023/10/31 07:57:12;;;;;;;7.20;4.13;;;11.80;90.10;;;;;;748280;187;26536;-88
2023/10/31 07:59:39;;;;;;;6.00;4.07;;;11.70;90.20;;;;;;747599;188;26551;-89
2023/10/31 08:02:05;;;;;;;5.03;3.83;;;11.60;90.50;;;;;;753349;187;27060;-88
2023/10/31 08:04:32;;;;;;;4.73;4.20;;;11.60;90.40;;;;;;755021;187;26504;-88
2023/10/31 08:07:19;;;;;;;8.70;4.23;;;11.60;90.50;;;;;;759288;187;26502;-88
2023/10/31 08:09:46;;;;;;;6.23;4.63;;;11.70;90.70;;;;;;748444;188;27022;-87
2023/10/31 08:12:12;;;;;;;7.60;4.00;;;11.70;89.60;;;;;;748580;190;26529;-88
2023/10/31 08:14:39;;;;;;;7.30;3.80;;;11.80;90.30;;;;;;748477;190;27007;-88
2023/10/31 08:17:06;;;;;;;5.00;4.33;;;11.80;89.40;;;;;;748644;190;26559;-88
2023/10/31 08:19:32;;;;;;;5.07;3.50;;;12.00;89.70;;;;;;760615;186;26491;-88
2023/10/31 08:21:59;;;;;;;4.67;3.50;;;12.10;87.90;;;;;;765094;187;27094;-88
2023/10/31 08:24:25;;;;;;;4.40;3.30;;;12.30;88.30;;;;;;759376;189;26509;-88
2023/10/31 08:26:52;;;;;;;3.67;3.30;;;12.50;87.10;;;;;;759323;189;28098;-88
2023/10/31 08:29:18;;;;;;;4.80;3.10;;;12.60;86.00;;;;;;759523;189;26537;-89
2023/10/31 08:31:45;;;;;;;3.73;2.97;;;12.70;86.00;;;;;;759443;189;27076;-89
2023/10/31 08:34:12;;;;;;;5.73;3.10;;;12.90;87.20;;;;;;761053;187;26530;-88
2023/10/31 08:36:39;;;;;;;5.47;3.87;;;12.80;83.50;;;;;;758903;184;28140;-88
2023/10/31 08:39:05;;;;;;;4.20;3.00;;;12.90;84.50;;;;;;760012;187;26614;-89
2023/10/31 08:41:31;;;;;;;3.33;2.97;;;13.00;82.90;;;;;;756552;187;26539;-88
2023/10/31 08:43:59;;;;;;;6.03;3.07;;;13.20;84.10;;;;;;759109;189;27085;-88
2023/10/31 08:46:25;;;;;;;5.30;3.00;;;13.10;84.80;;;;;;761980;187;26530;-89
2023/10/31 08:48:51;;;;;;;5.27;2.97;;;12.90;83.50;;;;;;755357;187;28162;-89
2023/10/31 08:51:18;;;;;;;3.70;2.77;;;12.80;84.00;;;;;;752426;186;26513;-88
2023/10/31 08:53:45;;;;;;;3.47;3.10;;;12.80;84.00;;;;;;743381;193;27131;-89
2023/10/31 08:56:11;;;;;;;6.30;3.03;;;13.00;84.00;;;;;;743582;193;26544;-88
2023/10/31 08:58:38;;;;;;;5.07;3.10;;;13.10;82.90;;;;;;743266;193;27106;-88
2023/10/31 09:01:04;;;;;;;4.50;2.60;;;13.10;81.70;;;;;;743448;193;26505;-89
2023/10/31 09:03:31;;;;;;;5.03;2.57;;;13.00;83.30;;;;;;743732;193;27089;-88
2023/10/31 09:05:58;;;;;;;3.20;2.80;;;13.20;82.40;;;;;;743683;193;26515;-88
2023/10/31 09:08:24;;;;;;;4.87;2.70;;;13.30;83.60;;;;;;743775;193;27068;-88
2023/10/31 09:10:51;;;;;;;3.63;2.70;;;13.40;82.90;;;;;;743585;193;26511;-90
2023/10/31 09:13:17;;;;;;;4.50;2.93;;;13.40;82.30;;;;;;744877;191;27054;-89
2023/10/31 09:15:45;;;;;;;4.07;2.83;;;13.60;82.40;;;;;;745783;193;26519;-89
2023/10/31 09:18:10;;;;;;;4.70;3.10;;;13.50;80.70;;;;;;745049;193;27048;-89
2023/10/31 09:20:37;;;;;;;5.53;3.70;;;13.60;81.90;;;;;;744700;187;26493;-89
2023/10/31 09:23:04;;;;;;;6.47;4.97;;;13.60;82.30;;;;;;744250;193;28905;-89
2023/10/31 09:25:30;;;;;;;4.97;4.43;;;13.50;82.50;;;;;;745549;192;26493;-89
2023/10/31 09:27:58;;;;;;;5.23;3.73;;;13.60;81.70;;;;;;744290;192;26510;-89
2023/10/31 09:30:23;;;;;;;4.60;3.17;;;13.70;80.90;;;;;;744237;187;26656;-89
2023/10/31 09:32:51;;;;;;;4.77;3.50;;;13.80;81.40;;;;;;743650;187;26552;-89
2023/10/31 09:35:17;;;;;;;4.23;3.30;;;13.60;81.30;;;;;;744074;187;27172;-91
2023/10/31 09:37:44;;;;;;;4.33;3.87;;;13.80;79.80;;;;;;745808;193;26501;-90
2023/10/31 09:40:10;;;;;;;4.77;2.97;;;13.80;79.80;;;;;;745716;192;26476;-91
2023/10/31 09:42:37;;;;;;;3.13;2.63;;;13.80;80.40;;;;;;745824;187;26501;-89
2023/10/31 09:45:04;;;;;;;4.23;3.30;;;13.70;79.00;;;;;;745762;189;26512;-91
2023/10/31 09:47:30;;;;;;;4.30;3.00;;;13.70;79.20;;;;;;745183;193;26485;-90
2023/10/31 09:49:57;;;;;;;4.77;2.63;;;13.60;79.70;;;;;;744145;192;26525;-89
2023/10/31 09:52:23;;;;;;;4.63;2.40;;;13.90;78.80;;;;;;755994;176;26542;-87
2023/10/31 09:54:55;;;;;;;6.07;3.60;;;14.00;78.60;;;;;;773558;185;26604;-85
2023/10/31 09:57:21;;;;;;;4.77;2.93;;;14.10;79.90;;;;;;773707;181;26549;-84
2023/10/31 09:59:51;;;;;;;15.10;9.03;;;14.20;77.30;;;;;;773515;184;27082;-87
2023/10/31 10:02:17;;;;;;;7.90;5.47;;;14.40;77.70;;;;;;772413;181;26421;-84
2023/10/31 10:04:44;;;;;;;5.90;4.70;;;14.40;76.60;;;;;;769563;182;26473;-84
2023/10/31 10:07:13;;;;;;;5.10;2.93;;;14.40;77.80;;;;;;766210;187;26468;-84
2023/10/31 10:09:43;;;;;;;7.97;4.90;;;14.40;75.70;;;;;;766058;182;26488;-85
2023/10/31 10:12:12;;;;;;;6.10;4.20;;;14.60;76.00;;;;;;766266;187;26488;-86
2023/10/31 10:14:46;;;;;;;5.53;2.73;;;14.80;76.10;;;;;;766236;183;26496;-84
2023/10/31 10:17:18;;;;;;;5.70;1.97;;;15.10;73.80;;;;;;766267;187;26476;-86
2023/10/31 10:19:48;;;;;;;3.20;1.97;;;15.70;71.70;;;;;;766288;187;26552;-85
2023/10/31 10:22:15;;;;;;;4.50;2.50;;;15.90;68.60;;;;;;766331;187;26488;-83
2023/10/31 10:24:42;;;;;;;6.67;4.63;;;16.10;67.80;;;;;;766976;185;26502;-85
2023/10/31 10:27:09;;;;;;;9.80;5.60;;;16.40;65.30;;;;;;769804;182;26439;-88
2023/10/31 10:29:44;;;;;;;6.67;2.57;;;16.60;66.80;;;;;;770369;174;26617;-90
2023/10/31 10:32:11;;;;;;;3.23;2.13;;;16.70;63.60;;;;;;769910;187;26566;-86
2023/10/31 10:34:38;;;;;;;5.23;3.00;;;16.50;64.80;;;;;;769478;187;26461;-88
2023/10/31 10:37:06;;;;;;;6.43;5.03;;;16.10;66.80;;;;;;768419;187;26489;-86
2023/10/31 10:39:32;;;;;;;7.20;4.30;;;16.70;67.70;;;;;;766979;187;26471;-85
2023/10/31 10:41:59;;;;;;;9.10;5.73;;;16.90;61.50;;;;;;767014;184;26709;-88
2023/10/31 10:44:36;;;;;;;44.93;25.93;;;17.30;59.90;;;;;;766469;183;27095;-88
2023/10/31 10:47:03;;;;;;;19.93;13.83;;;18.00;59.70;;;;;;766531;184;27043;-85
2023/10/31 10:49:30;;;;;;;19.80;11.70;;;17.40;59.90;;;;;;766548;187;26486;-85
2023/10/31 10:52:02;;;;;;;47.90;31.23;;;17.40;59.70;;;;;;766206;185;26476;-88
2023/10/31 10:54:36;;;;;;;28.57;20.40;;;17.10;63.20;;;;;;766370;185;26467;-86
2023/10/31 10:57:23;;;;;;;5.80;3.50;;;16.60;63.20;;;;;;766097;187;26467;-85
2023/10/31 10:59:55;;;;;;;2.17;1.57;;;16.20;64.60;;;;;;765813;184;26476;-82
2023/10/31 11:02:24;;;;;;;6.77;3.03;;;15.90;67.30;;;;;;765977;184;26526;-84
2023/10/31 11:04:50;;;;;;;5.53;4.47;;;15.70;65.80;;;;;;766060;187;26631;-85
2023/10/31 11:07:24;;;;;;;24.13;12.33;;;15.60;64.70;;;;;;765997;184;26501;-84
2023/10/31 11:09:54;;;;;;;11.70;7.57;;;15.60;65.80;;;;;;766107;187;26494;-85
2023/10/31 11:12:22;;;;;;;26.33;15.67;;;15.50;68.00;;;;;;766099;187;27030;-85
2023/10/31 11:17:27;;;;;;;14.73;10.17;;;15.00;70.10;;;;;;766102;187;27046;-84
2023/10/31 11:19:58;;;;;;;63.27;37.67;;;14.90;69.60;;;;;;766100;187;26469;-85
2023/10/31 11:22:25;;;;;;;87.10;49.13;;;14.80;71.40;;;;;;765990;183;26499;-82
2023/10/31 11:24:52;;;;;;;36.37;18.47;;;14.70;73.00;;;;;;765936;184;26512;-86
2023/10/31 11:27:25;;;;;;;58.70;31.57;;;14.60;70.20;;;;;;766484;184;27031;-82
2023/10/31 11:29:53;;;;;;;73.67;40.33;;;14.70;73.10;;;;;;766972;184;27068;-86
2023/10/31 11:32:20;;;;;;;83.13;42.47;;;14.70;70.90;;;;;;765779;184;26534;-87
2023/10/31 11:34:46;;;;;;;146.17;79.27;;;14.60;71.30;;;;;;778072;183;26543;-85
2023/10/31 11:37:31;;;;;;;74.10;39.37;;;14.70;71.10;;;;;;782399;182;28083;-85
2023/10/31 11:40:09;;;;;;;62.00;36.20;;;14.80;70.70;;;;;;782305;183;28074;-85
2023/10/31 11:42:35;;;;;;;30.30;18.80;;;14.90;71.40;;;;;;781876;184;26511;-84
2023/10/31 11:45:02;;;;;;;14.07;8.50;;;14.70;70.20;;;;;;781594;184;27009;-83
2023/10/31 11:47:29;;;;;;;11.53;8.03;;;14.70;71.20;;;;;;781159;180;26511;-86
2023/10/31 11:49:59;;;;;;;36.17;22.73;;;14.60;71.00;;;;;;778425;183;26472;-85
2023/10/31 11:52:32;;;;;;;36.03;20.77;;;14.50;72.20;;;;;;781287;183;27165;-85
2023/10/31 11:54:59;;;;;;;32.70;18.77;;;14.60;72.10;;;;;;781172;183;27029;-85
2023/10/31 11:57:30;;;;;;;6.30;4.27;;;14.60;71.70;;;;;;780664;181;26479;-85
2023/10/31 11:59:59;;;;;;;13.57;8.30;;;14.60;70.30;;;;;;780848;184;26483;-85
2023/10/31 12:02:25;;;;;;;28.30;18.40;;;14.70;71.70;;;;;;780800;184;26498;-85
2023/10/31 12:04:57;;;;;;;15.83;11.13;;;14.90;70.50;;;;;;780992;183;27029;-85
2023/10/31 12:07:27;;;;;;;17.30;10.93;;;15.10;71.80;;;;;;780860;184;26548;-85
2023/10/31 12:09:55;;;;;;;13.23;7.33;;;15.10;68.30;;;;;;780925;184;26503;-85
2023/10/31 12:12:21;;;;;;;59.27;33.10;;;15.10;68.90;;;;;;780636;181;26504;-85
2023/10/31 12:14:58;;;;;;;31.77;18.23;;;15.30;69.20;;;;;;778849;184;26476;-86
2023/10/31 12:17:25;;;;;;;35.07;19.13;;;15.40;67.60;;;;;;780093;183;26476;-86
2023/10/31 12:19:52;;;;;;;18.90;11.07;;;15.40;68.30;;;;;;780193;181;26491;-85
2023/10/31 12:22:21;;;;;;;10.90;7.43;;;15.70;67.40;;;;;;779775;181;26504;-86
2023/10/31 12:24:46;;;;;;;12.03;8.40;;;15.60;66.60;;;;;;780190;181;26480;-88
2023/10/31 12:27:11;;;;;;;10.40;6.87;;;15.50;68.20;;;;;;780169;184;26479;-86
2023/10/31 12:29:38;;;;;;;14.40;8.33;;;15.50;68.20;;;;;;780446;184;26480;-85
2023/10/31 12:32:05;;;;;;;15.70;8.30;;;15.50;66.50;;;;;;780374;184;26511;-85
2023/10/31 12:34:34;;;;;;;20.97;11.27;;;15.70;66.40;;;;;;780480;184;28157;-87
2023/10/31 12:37:01;;;;;;;62.77;32.50;;;16.50;64.90;;;;;;780079;184;26480;-86
2023/10/31 12:39:25;;;;;;;34.43;23.07;;;17.20;64.70;;;;;;780154;184;26479;-86
2023/10/31 12:41:54;;;;;;;5.23;3.50;;;17.60;59.00;;;;;;780653;184;27076;-87
2023/10/31 12:44:26;;;;;;;3.87;1.60;;;18.60;57.20;;;;;;780734;181;26530;-87
2023/10/31 12:46:53;;;;;;;4.63;2.40;;;17.50;56.90;;;;;;780410;184;26503;-85
2023/10/31 12:49:19;;;;;;;19.67;13.50;;;17.10;59.10;;;;;;783195;182;26479;-86
2023/10/31 12:51:56;;;;;;;32.77;20.53;;;16.90;61.90;;;;;;782313;184;27018;-86
2023/10/31 12:54:29;;;;;;;15.27;9.93;;;16.50;62.80;;;;;;782413;183;26480;-86
2023/10/31 13:11:05;;;;;;;6.47;3.43;;;17.10;61.20;;;;;;722477;175;26684;-89
2023/10/31 14:14:18;;;;;;;5.93;3.10;;;21.70;49.60;;;;;;746828;175;26496;-89
2023/10/31 14:16:44;;;;;;;17.53;12.50;;;21.20;46.70;;;;;;792095;181;26457;-88
2023/10/31 14:19:10;;;;;;;29.10;20.10;;;21.10;50.00;;;;;;791124;181;26431;-89